Letter Gap, West Virginia
Current Conditions -  °F | °C
As of 4:15 AM on Friday 28 Nov 2014 (Local Time) from KW22 Reporting Station
Overcast Overcast  
Wind Chill: 16°   Ceiling: 2000
Heat Index: 25°   Visibility: 10mi
Dew Point: 19°   Wind: 8mph
Humidity: 80%   Direction: 290°WNW
Pressure: 30.26"   Gusts: NA
Location:  38.8918°N, 80.9566°W
Report Text: KW22 280915Z AUTO 29007KT 10SM BKN020 BKN025 OVC046 M04/M07 A3026 RMK AO2
Loading
Personal Weather Stations






























Interactive Weather Map New forecast layout! Learn more

10-Day Weather Forecast

Advertisements
Track Severe Weather on mobile